Time;durP1;ratioP1;P1;durP2;ratioP2;P2;SDS_P1;SDS_P2;PMS_P1;PMS_P2;Temp;Humidity;BMP_temperature;BMP_pressure;BME280_temperature;BME280_humidity;BME280_pressure;Samples;Min_cycle;Max_cycle;Signal;HPM_P1;HPM_P2
2022/12/17 13:08:17;;;;;;;;;;;-1.10;99.90;;;;;;5012352;28;19961;-66
2022/12/17 13:10:42;;;;;;;;;;;-1.10;99.90;;;;;;4997077;28;19930;-66
2022/12/17 13:13:11;;;;;;;;;;;-1.10;99.90;;;;;;5008167;28;20282;-66
2022/12/17 13:15:40;;;;;;;;;;;-1.10;99.90;;;;;;5034563;28;19923;-67
2022/12/17 13:18:15;;;;;;;;;;;-1.10;99.90;;;;;;5020366;28;20358;-66
2022/12/17 13:20:41;;;;;;;;;;;-1.20;99.90;;;;;;4997081;28;19926;-66
2022/12/17 13:23:10;;;;;;;;;;;-1.20;99.90;;;;;;5017628;28;20275;-66
2022/12/17 13:25:36;;;;;;;;;;;-1.20;99.90;;;;;;4984433;28;20374;-66
2022/12/17 13:28:01;;;;;;;;;;;-1.10;99.90;;;;;;5063811;28;20271;-66
2022/12/17 13:30:34;;;;;;;;;;;-1.30;99.90;;;;;;5020810;28;19928;-66
2022/12/17 13:33:03;;;;;;;;;;;-1.30;99.90;;;;;;5006369;28;20008;-66
2022/12/17 13:35:42;;;;;;;;;;;-1.40;99.90;;;;;;5029661;28;19921;-66
2022/12/17 13:38:15;;;;;;;;;;;-1.40;99.90;;;;;;5019641;28;19921;-66
2022/12/17 13:40:43;;;;;;;;;;;-1.40;99.90;;;;;;5022487;28;19924;-66
2022/12/17 13:43:17;;;;;;;;;;;-1.40;99.90;;;;;;5011345;28;19928;-68
2022/12/17 13:45:43;;;;;;;;;;;-1.40;99.90;;;;;;4998608;28;19922;-67
2022/12/17 13:48:17;;;;;;;;;;;-1.40;99.90;;;;;;5000467;28;20533;-67
2022/12/17 13:50:51;;;;;;;;;;;-1.00;99.90;;;;;;5019282;28;19920;-67
2022/12/17 13:53:17;;;;;;;;;;;-1.40;99.90;;;;;;5004366;28;19923;-67
2022/12/17 13:55:48;;;;;;;;;;;-1.50;99.90;;;;;;5029544;28;19937;-67
2022/12/17 13:58:21;;;;;;;;;;;-1.50;99.90;;;;;;5032497;28;19920;-67
2022/12/17 14:00:46;;;;;;;;;;;-1.50;99.90;;;;;;5015466;28;19944;-67
2022/12/17 14:03:12;;;;;;;;;;;-1.50;99.90;;;;;;5060466;28;19920;-67
2022/12/17 14:05:41;;;;;;;;;;;-1.50;99.90;;;;;;4990718;28;19919;-67
2022/12/17 14:08:07;;;;;;;;;;;-1.60;99.90;;;;;;5039499;27;20019;-67
2022/12/17 14:10:32;;;;;;;;;;;-1.70;99.90;;;;;;5027156;28;19997;-67
2022/12/17 14:13:04;;;;;;;;;;;-1.60;99.90;;;;;;5026100;28;20144;-67
2022/12/17 14:15:30;;;;;;;;;;;-1.60;99.90;;;;;;5026117;28;19926;-67
2022/12/17 14:17:57;;;;;;;;;;;-1.60;99.90;;;;;;4992190;28;19925;-67
2022/12/17 14:20:34;;;;;;;;;;;-1.70;99.90;;;;;;4998512;28;19925;-67
2022/12/17 14:23:11;;;;;;;;;;;-1.70;99.90;;;;;;5013631;28;20398;-67
2022/12/17 14:25:38;;;;;;;;;;;-1.70;99.90;;;;;;4996757;28;19926;-67
2022/12/17 14:28:05;;;;;;;;;;;-1.70;99.90;;;;;;5030916;27;19920;-67
2022/12/17 14:30:34;;;;;;;;;;;-1.80;99.90;;;;;;5018325;28;20369;-67
2022/12/17 14:32:59;;;;;;;;;;;-1.80;99.90;;;;;;4991483;28;21112;-67
2022/12/17 14:35:30;;;;;;;;;;;-2.00;99.90;;;;;;4998315;28;19995;-68
2022/12/17 14:37:56;;;;;;;;;;;-2.10;99.90;;;;;;5029704;27;19969;-67
2022/12/17 14:40:23;;;;;;;;;;;-2.00;99.90;;;;;;5012892;28;19978;-67
2022/12/17 14:42:49;;;;;;;;;;;-2.10;99.90;;;;;;5018577;28;19925;-67
2022/12/17 14:45:14;;;;;;;;;;;-2.20;99.90;;;;;;5019724;28;20336;-67
2022/12/17 14:47:50;;;;;;;;;;;-2.20;99.90;;;;;;5013140;28;19922;-67
2022/12/17 14:50:16;;;;;;;;;;;-2.30;99.90;;;;;;5019424;27;19944;-66
2022/12/17 14:52:43;;;;;;;;;;;-2.40;99.90;;;;;;5018156;28;20384;-67
2022/12/17 14:55:24;;;;;;;;;;;-2.50;99.90;;;;;;5023310;28;19922;-66
2022/12/17 14:57:51;;;;;;;;;;;-2.50;99.90;;;;;;4994332;28;19941;-67
2022/12/17 15:00:17;;;;;;;;;;;-2.50;99.90;;;;;;5031038;28;20016;-66
2022/12/17 15:02:43;;;;;;;;;;;-2.40;99.90;;;;;;5021663;28;19945;-67
2022/12/17 15:05:13;;;;;;;;;;;-1.90;99.90;;;;;;4973320;28;20005;-67
2022/12/17 15:07:39;;;;;;;;;;;-2.40;99.90;;;;;;5024196;28;19920;-67
2022/12/17 15:10:09;;;;;;;;;;;-2.50;99.90;;;;;;5019878;28;20324;-67
2022/12/17 15:12:34;;;;;;;;;;;-2.50;99.90;;;;;;5017755;28;20311;-67
2022/12/17 15:15:00;;;;;;;;;;;-2.50;99.90;;;;;;5001853;28;19928;-67
2022/12/17 15:17:26;;;;;;;;;;;-2.50;99.90;;;;;;5016645;28;19969;-67
2022/12/17 15:19:51;;;;;;;;;;;-2.40;99.90;;;;;;5033951;28;19969;-66
2022/12/17 15:22:17;;;;;;;;;;;-2.50;99.90;;;;;;5029845;28;20333;-66
2022/12/17 15:24:43;;;;;;;;;;;-2.50;99.90;;;;;;5048305;28;19982;-66
2022/12/17 15:27:15;;;;;;;;;;;-2.50;99.90;;;;;;5015380;28;19967;-66
2022/12/17 15:29:41;;;;;;;;;;;-2.40;99.90;;;;;;5041494;27;20498;-66
2022/12/17 15:32:12;;;;;;;;;;;-2.50;99.90;;;;;;5018287;28;19922;-66
2022/12/17 15:34:38;;;;;;;;;;;-2.50;99.90;;;;;;4993555;28;20362;-67
2022/12/17 15:37:04;;;;;;;;;;;-2.60;99.90;;;;;;5017640;28;19932;-67
2022/12/17 15:39:30;;;;;;;;;;;-2.60;99.90;;;;;;5014555;28;20044;-67
2022/12/17 15:44:40;;;;;;;;;;;-2.70;99.90;;;;;;5029169;28;19924;-66
2022/12/17 15:47:05;;;;;;;;;;;-2.80;99.90;;;;;;5014664;28;19928;-66
2022/12/17 15:49:31;;;;;;;;;;;-2.80;99.90;;;;;;5068705;28;19964;-66
2022/12/17 15:51:57;;;;;;;;;;;-2.70;99.90;;;;;;5064654;27;19928;-66
2022/12/17 15:54:24;;;;;;;;;;;-2.70;99.90;;;;;;5008313;28;20292;-66
2022/12/17 15:56:52;;;;;;;;;;;-2.60;99.90;;;;;;5077774;28;19930;-67
2022/12/17 15:59:18;;;;;;;;;;;-2.70;99.90;;;;;;5057456;28;19920;-67
2022/12/17 16:01:44;;;;;;;;;;;-2.70;99.90;;;;;;5034628;27;19935;-67
2022/12/17 16:04:09;;;;;;;;;;;-2.70;99.90;;;;;;5071534;28;19942;-66
2022/12/17 16:06:35;;;;;;;;;;;-2.70;99.90;;;;;;5073063;28;20007;-67
2022/12/17 16:09:00;;;;;;;;;;;-2.70;99.90;;;;;;5078588;28;19965;-66
2022/12/17 16:11:26;;;;;;;;;;;-2.60;99.90;;;;;;5021277;28;19937;-66
2022/12/17 16:13:52;;;;;;;;;;;-2.70;99.90;;;;;;5030261;28;20596;-67
2022/12/17 16:16:18;;;;;;;;;;;-2.70;99.90;;;;;;5079992;28;19920;-66
2022/12/17 16:18:43;;;;;;;;;;;-2.70;99.90;;;;;;5001831;28;19922;-66
2022/12/17 16:21:09;;;;;;;;;;;-2.70;99.90;;;;;;5079803;28;19959;-66
2022/12/17 16:23:35;;;;;;;;;;;-2.70;99.90;;;;;;5057338;28;19928;-66
2022/12/17 16:26:02;;;;;;;;;;;-2.70;99.90;;;;;;5060533;28;19973;-66
2022/12/17 16:28:28;;;;;;;;;;;-2.60;99.90;;;;;;5046488;28;19965;-66
2022/12/17 16:31:07;;;;;;;;;;;-2.70;99.90;;;;;;5067898;28;19972;-66
2022/12/17 16:33:33;;;;;;;;;;;-2.60;99.90;;;;;;4992330;28;20361;-66
2022/12/17 16:35:59;;;;;;;;;;;-2.60;99.90;;;;;;5036253;27;19929;-66
2022/12/17 16:38:25;;;;;;;;;;;-2.40;99.90;;;;;;5076965;28;20345;-66
2022/12/17 16:40:57;;;;;;;;;;;-2.60;99.90;;;;;;5070738;28;19948;-66
2022/12/17 16:43:24;;;;;;;;;;;-2.60;99.90;;;;;;5067211;28;19924;-67
2022/12/17 16:45:50;;;;;;;;;;;-2.60;99.90;;;;;;5064872;28;19935;-66
2022/12/17 16:48:18;;;;;;;;;;;-2.70;99.90;;;;;;5052313;28;20297;-66
2022/12/17 16:50:44;;;;;;;;;;;-2.60;99.90;;;;;;4981204;28;19929;-66
2022/12/17 16:53:09;;;;;;;;;;;-2.60;99.90;;;;;;5070347;28;19920;-67
2022/12/17 16:55:39;;;;;;;;;;;-2.70;99.90;;;;;;4991445;28;19969;-66
2022/12/17 16:58:04;;;;;;;;;;;-2.80;99.90;;;;;;5029195;28;20330;-66
2022/12/17 17:00:30;;;;;;;;;;;-2.80;99.90;;;;;;5007784;28;19996;-67
2022/12/17 17:02:55;;;;;;;;;;;-2.90;99.90;;;;;;5011543;28;19971;-66
2022/12/17 17:05:21;;;;;;;;;;;-2.90;99.90;;;;;;5077897;28;19928;-66
2022/12/17 17:07:46;;;;;;;;;;;-2.90;99.90;;;;;;5034479;28;20470;-66
2022/12/17 17:10:12;;;;;;;;;;;-2.90;99.90;;;;;;5059304;28;19928;-66
2022/12/17 17:12:38;;;;;;;;;;;-2.90;99.90;;;;;;4990702;28;20003;-66
2022/12/17 17:15:03;;;;;;;;;;;-2.90;99.90;;;;;;5063232;28;19973;-67
2022/12/17 17:17:29;;;;;;;;;;;-2.90;99.90;;;;;;5084099;28;19920;-66
2022/12/17 17:19:54;;;;;;;;;;;-2.90;99.90;;;;;;5052903;28;19928;-66
2022/12/17 17:22:20;;;;;;;;;;;-2.90;99.90;;;;;;5075292;28;19973;-66
2022/12/17 17:24:46;;;;;;;;;;;-2.90;99.90;;;;;;5083299;27;19931;-66
2022/12/17 17:27:11;;;;;;;;;;;-2.90;99.90;;;;;;5074329;28;19920;-66
2022/12/17 17:29:37;;;;;;;;;;;-2.90;99.90;;;;;;5021124;28;20279;-66
2022/12/17 17:32:02;;;;;;;;;;;-2.90;99.90;;;;;;5010771;28;19960;-66
2022/12/17 17:34:28;;;;;;;;;;;-2.90;99.90;;;;;;5075734;28;20006;-66
2022/12/17 17:36:54;;;;;;;;;;;-2.60;99.90;;;;;;5081584;28;19920;-66
2022/12/17 17:39:19;;;;;;;;;;;-3.00;99.90;;;;;;5040910;28;20461;-66
2022/12/17 17:41:45;;;;;;;;;;;-3.00;99.90;;;;;;5069103;28;19970;-66
2022/12/17 17:44:11;;;;;;;;;;;-2.30;99.90;;;;;;5039905;27;19922;-66
2022/12/17 17:46:37;;;;;;;;;;;-2.90;99.90;;;;;;5072814;28;19924;-66
2022/12/17 17:49:04;;;;;;;;;;;-2.90;99.90;;;;;;5078847;28;20343;-66
2022/12/17 17:51:31;;;;;;;;;;;-2.90;99.90;;;;;;5077425;28;20015;-66
2022/12/17 17:53:58;;;;;;;;;;;-2.90;99.90;;;;;;5079986;28;19923;-66
2022/12/17 17:56:25;;;;;;;;;;;-2.80;99.90;;;;;;5065166;28;19929;-66
2022/12/17 17:58:55;;;;;;;;;;;-2.80;99.90;;;;;;5086523;28;20293;-66
2022/12/17 18:01:23;;;;;;;;;;;-2.80;99.90;;;;;;5045262;27;19960;-66
2022/12/17 18:03:49;;;;;;;;;;;-2.80;99.90;;;;;;5027663;28;20237;-66
2022/12/17 18:06:14;;;;;;;;;;;-2.80;99.90;;;;;;5010462;28;20008;-66
2022/12/17 18:08:40;;;;;;;;;;;-2.80;99.90;;;;;;5063946;28;20357;-66
2022/12/17 18:11:07;;;;;;;;;;;-2.20;99.90;;;;;;5076145;28;20408;-66
2022/12/17 18:16:17;;;;;;;;;;;-2.70;99.90;;;;;;5064096;28;19921;-66
2022/12/17 18:18:43;;;;;;;;;;;-2.90;99.90;;;;;;5071115;28;19924;-66
2022/12/17 18:21:13;;;;;;;;;;;-2.90;99.90;;;;;;5064752;28;20000;-66
2022/12/17 18:23:39;;;;;;;;;;;-2.90;99.90;;;;;;5035150;27;20452;-66
2022/12/17 18:26:05;;;;;;;;;;;-3.00;99.90;;;;;;5068902;28;19920;-66
2022/12/17 18:28:31;;;;;;;;;;;-2.90;99.90;;;;;;5070535;28;19940;-66
2022/12/17 18:30:57;;;;;;;;;;;-3.00;99.90;;;;;;5002424;28;19922;-66
2022/12/17 18:33:24;;;;;;;;;;;-2.90;99.90;;;;;;4995261;28;19965;-66
2022/12/17 18:35:49;;;;;;;;;;;-3.00;99.90;;;;;;5074197;28;19929;-66
2022/12/17 18:38:16;;;;;;;;;;;-3.00;99.90;;;;;;5043323;27;20389;-66
2022/12/17 18:40:41;;;;;;;;;;;-3.00;99.90;;;;;;5027361;27;19925;-66
2022/12/17 18:43:23;;;;;;;;;;;-3.00;99.90;;;;;;5046820;27;19922;-66
2022/12/17 18:45:52;;;;;;;;;;;-3.00;99.90;;;;;;5006008;28;19965;-66
2022/12/17 18:48:18;;;;;;;;;;;-3.00;99.90;;;;;;5075876;28;19927;-66
2022/12/17 18:50:43;;;;;;;;;;;-3.10;99.90;;;;;;5077768;28;19942;-66
2022/12/17 18:53:09;;;;;;;;;;;-3.10;99.90;;;;;;5003709;28;20398;-66
2022/12/17 18:55:39;;;;;;;;;;;-3.10;99.90;;;;;;5008790;28;20157;-66
2022/12/17 18:58:08;;;;;;;;;;;-2.60;99.90;;;;;;4997250;28;20425;-66
2022/12/17 19:00:33;;;;;;;;;;;-3.10;99.90;;;;;;5075816;28;19928;-67
2022/12/17 19:02:59;;;;;;;;;;;-3.10;99.90;;;;;;5069800;28;20313;-66
2022/12/17 19:05:25;;;;;;;;;;;-3.10;99.90;;;;;;5015160;28;20255;-66
2022/12/17 19:07:50;;;;;;;;;;;-3.20;99.90;;;;;;5031121;28;20590;-66
2022/12/17 19:10:16;;;;;;;;;;;-3.20;99.90;;;;;;5077375;28;19927;-66
2022/12/17 19:12:41;;;;;;;;;;;-2.70;99.90;;;;;;5006325;28;19924;-66
2022/12/17 19:15:07;;;;;;;;;;;-3.20;99.90;;;;;;5077698;28;20018;-66
2022/12/17 19:17:33;;;;;;;;;;;-3.20;99.90;;;;;;5048791;28;19922;-66
2022/12/17 19:19:58;;;;;;;;;;;-3.30;99.90;;;;;;5061521;28;19932;-67
2022/12/17 19:22:24;;;;;;;;;;;-3.30;99.90;;;;;;5078251;28;20305;-66
2022/12/17 19:24:49;;;;;;;;;;;-3.40;99.90;;;;;;4976183;28;19960;-66
2022/12/17 19:27:15;;;;;;;;;;;-3.40;99.90;;;;;;4994117;28;19926;-66
2022/12/17 19:29:40;;;;;;;;;;;-3.40;99.90;;;;;;5077014;28;19928;-66
2022/12/17 19:32:06;;;;;;;;;;;-3.40;99.90;;;;;;5050441;28;19930;-66
2022/12/17 19:34:33;;;;;;;;;;;-3.40;99.90;;;;;;4983537;28;19929;-66
2022/12/17 19:36:59;;;;;;;;;;;-3.50;99.90;;;;;;5026418;28;19920;-66
2022/12/17 19:39:25;;;;;;;;;;;-3.40;99.90;;;;;;5024544;27;19929;-66
2022/12/17 19:41:50;;;;;;;;;;;-3.40;99.90;;;;;;5061649;28;19927;-66
2022/12/17 19:44:16;;;;;;;;;;;-3.40;99.90;;;;;;5040833;27;19929;-66
2022/12/17 19:46:42;;;;;;;;;;;-3.30;99.90;;;;;;5067030;28;19959;-66
2022/12/17 19:49:12;;;;;;;;;;;-3.30;99.90;;;;;;4987370;28;19973;-66
2022/12/17 19:51:39;;;;;;;;;;;-3.30;99.90;;;;;;5009052;28;19928;-66
2022/12/17 19:54:05;;;;;;;;;;;-3.40;99.90;;;;;;4994304;28;19961;-66
2022/12/17 19:56:31;;;;;;;;;;;-3.30;99.90;;;;;;4999707;28;20029;-66
2022/12/17 19:58:59;;;;;;;;;;;-3.40;99.90;;;;;;5079638;28;20032;-66
2022/12/17 20:01:27;;;;;;;;;;;-3.40;99.90;;;;;;5061421;28;19930;-66
2022/12/17 20:03:53;;;;;;;;;;;-3.30;99.90;;;;;;4995306;28;19922;-67
2022/12/17 20:06:19;;;;;;;;;;;-3.40;99.90;;;;;;5050882;28;20340;-66
2022/12/17 20:08:45;;;;;;;;;;;-3.40;99.90;;;;;;5069599;28;20231;-66
2022/12/17 20:11:54;;;;;;;;;;;-3.40;99.90;;;;;;5034951;27;20462;-66
2022/12/17 20:14:00;;;;;;;;;;;-3.40;99.90;;;;;;5064418;28;20298;-66
2022/12/17 20:16:26;;;;;;;;;;;-3.40;99.90;;;;;;5029532;27;19926;-66
2022/12/17 20:18:52;;;;;;;;;;;-3.30;99.90;;;;;;5041467;28;20360;-67
2022/12/17 20:21:18;;;;;;;;;;;-2.80;99.90;;;;;;5007193;28;19930;-66
2022/12/17 20:23:47;;;;;;;;;;;-5.20;99.90;;;;;;5053981;28;20289;-67
2022/12/17 20:26:13;;;;;;;;;;;-3.40;99.90;;;;;;5068383;28;19965;-66
2022/12/17 20:28:38;;;;;;;;;;;-3.40;99.90;;;;;;5059322;28;19919;-66
2022/12/17 20:31:04;;;;;;;;;;;-3.00;99.90;;;;;;5012543;28;19921;-66
2022/12/17 20:33:29;;;;;;;;;;;-3.40;99.90;;;;;;5062453;28;19929;-66
2022/12/17 20:36:01;;;;;;;;;;;-3.50;99.90;;;;;;5040504;28;19944;-66
2022/12/17 20:38:26;;;;;;;;;;;-3.50;99.90;;;;;;5079252;27;19924;-66
2022/12/17 20:40:52;;;;;;;;;;;-3.50;99.90;;;;;;5059958;28;19990;-66
2022/12/17 20:43:17;;;;;;;;;;;-3.50;99.90;;;;;;5036284;28;19959;-66
2022/12/17 20:45:50;;;;;;;;;;;-3.50;99.90;;;;;;5038672;28;19929;-66
2022/12/17 20:48:16;;;;;;;;;;;-3.50;99.90;;;;;;5072769;28;19922;-66
2022/12/17 20:50:42;;;;;;;;;;;-3.50;99.90;;;;;;5057844;28;20274;-66
2022/12/17 20:53:07;;;;;;;;;;;-2.80;99.90;;;;;;5002226;28;19929;-66
2022/12/17 20:55:33;;;;;;;;;;;-3.50;99.90;;;;;;5078274;28;19921;-66
2022/12/17 20:57:58;;;;;;;;;;;-3.60;99.90;;;;;;5023440;28;19922;-66
2022/12/17 21:00:24;;;;;;;;;;;-3.50;99.90;;;;;;5013705;28;20145;-66
2022/12/17 21:02:49;;;;;;;;;;;-3.60;99.90;;;;;;5036194;28;19995;-66
2022/12/17 21:05:16;;;;;;;;;;;-3.70;99.90;;;;;;5058868;28;20219;-66
2022/12/17 21:07:43;;;;;;;;;;;-3.10;99.90;;;;;;5007784;28;19920;-66
2022/12/17 21:10:08;;;;;;;;;;;-3.70;99.90;;;;;;5073588;28;19920;-66
2022/12/17 21:15:18;;;;;;;;;;;-3.70;99.90;;;;;;5045357;28;19925;-66
2022/12/17 21:17:44;;;;;;;;;;;-2.80;99.90;;;;;;5033301;28;20278;-66
2022/12/17 21:20:10;;;;;;;;;;;-3.60;99.90;;;;;;5073317;28;19932;-66
2022/12/17 21:22:36;;;;;;;;;;;-3.60;99.90;;;;;;5058834;28;20266;-66
2022/12/17 21:25:01;;;;;;;;;;;-3.70;99.90;;;;;;5062523;28;19927;-66
2022/12/17 21:27:27;;;;;;;;;;;-3.70;99.90;;;;;;5053474;28;20389;-66
2022/12/17 21:29:52;;;;;;;;;;;-3.70;99.90;;;;;;5035768;28;19927;-66
2022/12/17 21:32:18;;;;;;;;;;;-3.70;99.90;;;;;;4999370;28;20370;-66
2022/12/17 21:34:44;;;;;;;;;;;-3.70;99.90;;;;;;5067159;28;19920;-66
2022/12/17 21:37:10;;;;;;;;;;;-3.60;99.90;;;;;;5042658;28;19936;-66
2022/12/17 21:39:35;;;;;;;;;;;-3.60;99.90;;;;;;5061978;28;19920;-66
2022/12/17 21:44:45;;;;;;;;;;;-3.70;99.90;;;;;;5024228;28;19933;-66
2022/12/17 21:47:11;;;;;;;;;;;-3.80;99.90;;;;;;4974355;28;19922;-66
2022/12/17 21:49:36;;;;;;;;;;;-3.90;99.90;;;;;;5014841;28;19920;-66
2022/12/17 21:52:02;;;;;;;;;;;-3.90;99.90;;;;;;5052676;28;19920;-66
2022/12/17 21:54:27;;;;;;;;;;;-3.90;99.90;;;;;;4997728;28;20240;-66
2022/12/17 21:56:53;;;;;;;;;;;-3.90;99.90;;;;;;5009365;28;20195;-66
2022/12/17 21:59:19;;;;;;;;;;;-3.90;99.90;;;;;;4998190;28;20394;-66
2022/12/17 22:01:44;;;;;;;;;;;-3.90;99.90;;;;;;5049607;28;19924;-66
2022/12/17 22:04:10;;;;;;;;;;;-4.00;99.90;;;;;;5047211;28;20015;-67
2022/12/17 22:06:37;;;;;;;;;;;-3.60;99.90;;;;;;5015828;28;19999;-66
2022/12/17 22:09:06;;;;;;;;;;;-3.90;99.90;;;;;;5061007;28;19927;-66
2022/12/17 22:11:32;;;;;;;;;;;-4.00;99.90;;;;;;5049260;27;20377;-66
2022/12/17 22:14:10;;;;;;;;;;;-4.00;99.90;;;;;;5052697;27;19942;-66
2022/12/17 22:16:38;;;;;;;;;;;-4.00;99.90;;;;;;5022725;28;20550;-66
2022/12/17 22:19:04;;;;;;;;;;;-4.10;99.90;;;;;;5009385;28;19926;-66
2022/12/17 22:21:33;;;;;;;;;;;-3.80;99.90;;;;;;5054149;28;20182;-66
2022/12/17 22:23:59;;;;;;;;;;;-4.10;99.90;;;;;;5061904;28;19928;-66
2022/12/17 22:26:24;;;;;;;;;;;-4.20;99.90;;;;;;5073753;28;19931;-66
2022/12/17 22:28:50;;;;;;;;;;;-4.10;99.90;;;;;;5042716;28;20506;-66
2022/12/17 22:34:02;;;;;;;;;;;-4.10;99.90;;;;;;5050722;28;19933;-66
2022/12/17 22:36:28;;;;;;;;;;;-4.20;99.90;;;;;;5062331;27;19920;-66
2022/12/17 22:38:54;;;;;;;;;;;-4.10;99.90;;;;;;5024344;27;19926;-66
2022/12/17 22:44:04;;;;;;;;;;;-4.10;99.90;;;;;;5059490;28;20007;-66
2022/12/17 22:46:30;;;;;;;;;;;-4.10;99.90;;;;;;5071631;28;20007;-66
2022/12/17 22:48:56;;;;;;;;;;;-4.10;99.90;;;;;;5060603;28;19956;-66
2022/12/17 22:51:22;;;;;;;;;;;-4.10;99.90;;;;;;5041607;28;19971;-66
2022/12/17 22:53:48;;;;;;;;;;;-4.10;99.90;;;;;;5065066;28;20288;-66
2022/12/17 22:56:14;;;;;;;;;;;-4.00;99.90;;;;;;5047154;27;19925;-66
2022/12/17 22:58:39;;;;;;;;;;;-4.10;99.90;;;;;;5007366;28;20388;-66
2022/12/17 23:01:05;;;;;;;;;;;-4.10;99.90;;;;;;5042340;28;20028;-66
2022/12/17 23:03:30;;;;;;;;;;;-4.10;99.90;;;;;;5065907;28;19920;-66
2022/12/17 23:06:06;;;;;;;;;;;-4.10;99.90;;;;;;5061601;27;19922;-66
2022/12/17 23:08:32;;;;;;;;;;;-4.10;99.90;;;;;;5071095;28;20277;-66
2022/12/17 23:10:57;;;;;;;;;;;-4.10;99.90;;;;;;5050870;28;19924;-66
2022/12/17 23:13:23;;;;;;;;;;;-4.10;99.90;;;;;;5049569;28;19921;-66
2022/12/17 23:15:49;;;;;;;;;;;-4.10;99.90;;;;;;5004562;28;20436;-66
2022/12/17 23:18:15;;;;;;;;;;;-4.10;99.90;;;;;;5060876;28;19929;-66
2022/12/17 23:20:41;;;;;;;;;;;-4.10;99.90;;;;;;5041566;28;20302;-66
2022/12/17 23:23:06;;;;;;;;;;;-4.10;99.90;;;;;;5000393;28;19926;-66
2022/12/17 23:25:32;;;;;;;;;;;-3.50;99.90;;;;;;5044708;28;19929;-66
2022/12/17 23:27:57;;;;;;;;;;;-3.80;99.90;;;;;;5007033;28;19984;-66
2022/12/17 23:30:23;;;;;;;;;;;-4.10;99.90;;;;;;5033929;28;19929;-66
2022/12/17 23:32:49;;;;;;;;;;;-4.20;99.90;;;;;;4987314;28;19952;-66
2022/12/17 23:35:14;;;;;;;;;;;-4.30;99.90;;;;;;4988159;28;19926;-65
2022/12/17 23:37:40;;;;;;;;;;;-4.30;99.90;;;;;;5092416;27;19929;-65
2022/12/17 23:40:09;;;;;;;;;;;-4.30;99.90;;;;;;5014298;28;19933;-67
2022/12/17 23:42:35;;;;;;;;;;;-4.30;99.90;;;;;;5010576;28;19978;-66
2022/12/17 23:45:00;;;;;;;;;;;-4.30;99.90;;;;;;5057148;28;20010;-66
2022/12/17 23:47:26;;;;;;;;;;;-4.30;99.90;;;;;;5077919;28;20447;-66
2022/12/17 23:49:51;;;;;;;;;;;-4.40;99.90;;;;;;5011497;28;20267;-66
2022/12/17 23:52:17;;;;;;;;;;;-4.40;99.90;;;;;;5055864;28;20145;-66
2022/12/17 23:54:43;;;;;;;;;;;-4.40;99.90;;;;;;5069506;28;19926;-66
2022/12/17 23:57:08;;;;;;;;;;;-4.40;99.90;;;;;;5004466;28;20063;-66
2022/12/17 23:59:34;;;;;;;;;;;-4.50;99.90;;;;;;5052708;28;19922;-66
